createdAt,value
2023-02-20T00:00:09.103Z,92.8
2023-02-20T00:01:25.409Z,92.7
2023-02-20T00:02:41.697Z,92.8
2023-02-20T00:03:57.997Z,92.8
2023-02-20T00:05:14.287Z,92.9
2023-02-20T00:06:30.580Z,93.1
2023-02-20T00:07:46.866Z,93.2
2023-02-20T00:09:03.168Z,93.2
2023-02-20T00:10:19.456Z,93.3
2023-02-20T00:11:35.754Z,93.3
2023-02-20T00:12:52.042Z,93.3
2023-02-20T00:14:08.343Z,93.4
2023-02-20T00:15:24.632Z,93.4
2023-02-20T00:16:39.944Z,93.5
2023-02-20T00:17:56.229Z,93.5
2023-02-20T00:19:12.536Z,93.6
2023-02-20T00:20:28.826Z,93.8
2023-02-20T00:21:45.109Z,93.9
2023-02-20T00:23:01.404Z,94
2023-02-20T00:24:17.706Z,94
2023-02-20T00:25:34.010Z,94.2
2023-02-20T00:26:50.291Z,94.3
2023-02-20T00:28:06.587Z,94.4
2023-02-20T00:29:22.885Z,94.3
2023-02-20T00:30:39.188Z,94.3
2023-02-20T00:31:55.483Z,94.3
2023-02-20T00:33:11.772Z,94.4
2023-02-20T00:34:27.070Z,94.4
2023-02-20T00:35:43.376Z,94.5
2023-02-20T00:36:59.657Z,94.5
2023-02-20T00:38:15.946Z,94.5
2023-02-20T00:39:32.249Z,94.7
2023-02-20T00:40:48.542Z,94.8
2023-02-20T00:42:04.843Z,94.8
2023-02-20T00:43:21.128Z,94.9
2023-02-20T00:44:37.433Z,94.9
2023-02-20T00:45:53.727Z,95.1
2023-02-20T00:47:10.020Z,94.9
2023-02-20T00:48:26.306Z,94.8
2023-02-20T00:49:42.591Z,94.7
2023-02-20T00:50:57.908Z,94.6
2023-02-20T00:52:14.215Z,94.6
2023-02-20T00:53:30.496Z,94.6
2023-02-20T00:54:46.788Z,94.7
2023-02-20T00:56:03.091Z,94.8
2023-02-20T00:57:19.388Z,94.9
2023-02-20T00:58:35.670Z,94.9
2023-02-20T00:59:51.957Z,95
2023-02-20T01:01:08.252Z,95
2023-02-20T01:02:24.553Z,95
2023-02-20T01:03:40.857Z,94.8
2023-02-20T01:04:57.144Z,94.7
2023-02-20T01:06:13.446Z,94.8
2023-02-20T01:07:28.746Z,94.8
2023-02-20T01:08:45.035Z,94.8
2023-02-20T01:10:01.350Z,94.8
2023-02-20T01:11:17.625Z,94.9
2023-02-20T01:12:33.914Z,94.9
2023-02-20T01:13:50.223Z,94.9
2023-02-20T01:15:06.512Z,94.8
2023-02-20T01:16:22.801Z,94.9
2023-02-20T01:17:39.098Z,95
2023-02-20T01:18:55.386Z,94.8
2023-02-20T01:20:11.680Z,94.7
2023-02-20T01:21:27.974Z,94.6
2023-02-20T01:22:44.269Z,94.7
2023-02-20T01:23:59.579Z,94.6
2023-02-20T01:25:15.866Z,94.8
2023-02-20T01:26:32.179Z,94.8
2023-02-20T01:27:48.459Z,94.9
2023-02-20T01:29:04.765Z,94.9
2023-02-20T01:30:21.061Z,95
2023-02-20T01:31:37.336Z,94.9
2023-02-20T01:32:53.650Z,94.9
2023-02-20T01:34:09.938Z,94.8
2023-02-20T01:35:26.226Z,94.9
2023-02-20T01:36:42.529Z,95
2023-02-20T01:37:58.810Z,95
2023-02-20T01:39:15.109Z,94.8
2023-02-20T01:40:30.425Z,94.7
2023-02-20T01:41:46.704Z,94.7
2023-02-20T01:43:03.012Z,94.7
2023-02-20T01:44:19.315Z,94.7
2023-02-20T01:45:35.589Z,94.7
2023-02-20T01:46:50.909Z,94.7
2023-02-20T01:48:07.201Z,94.7
2023-02-20T01:49:23.496Z,94.7
2023-02-20T01:50:39.787Z,94.7
2023-02-20T01:51:56.084Z,94.7
2023-02-20T01:53:12.389Z,94.7
2023-02-20T01:54:28.688Z,94.7
2023-02-20T01:55:44.969Z,94.5
2023-02-20T01:57:01.259Z,94.5
2023-02-20T01:58:17.553Z,94.4
2023-02-20T01:59:33.862Z,94.4
2023-02-20T02:00:50.155Z,94.3
2023-02-20T02:02:06.445Z,94.2
2023-02-20T02:03:22.726Z,94.2
2023-02-20T02:04:38.053Z,94.1
2023-02-20T02:05:54.000Z,94.1
2023-02-20T02:07:10.633Z,93.8
2023-02-20T02:08:26.931Z,93.7
2023-02-20T02:09:43.207Z,93.7
2023-02-20T02:10:59.524Z,93.5
2023-02-20T02:12:15.799Z,93.4
2023-02-20T02:13:32.105Z,93.5
2023-02-20T02:14:48.379Z,93.5
2023-02-20T02:16:04.674Z,93.6
2023-02-20T02:17:20.983Z,93.6
2023-02-20T02:18:37.266Z,93.7
2023-02-20T02:19:53.556Z,93.7
2023-02-20T02:21:08.874Z,93.8
2023-02-20T02:22:25.175Z,93.8
2023-02-20T02:23:41.475Z,93.9
2023-02-20T02:24:57.769Z,94
2023-02-20T02:26:14.054Z,94
2023-02-20T02:27:30.350Z,94.1
2023-02-20T02:28:46.636Z,94.1
2023-02-20T02:30:02.930Z,94.2
2023-02-20T02:31:19.229Z,94.3
2023-02-20T02:32:35.519Z,94.3
2023-02-20T02:33:51.811Z,94.5
2023-02-20T02:35:08.107Z,94.7
2023-02-20T02:36:24.397Z,94.8
2023-02-20T02:37:39.725Z,94.9
2023-02-20T02:38:56.003Z,95
2023-02-20T02:40:12.298Z,95
2023-02-20T02:41:28.588Z,95.2
2023-02-20T02:42:44.874Z,95.4
2023-02-20T02:44:01.185Z,95.4
2023-02-20T02:45:17.477Z,95.5
2023-02-20T02:46:33.761Z,95.5
2023-02-20T02:47:50.063Z,95.5
2023-02-20T02:49:06.368Z,95.5
2023-02-20T02:50:22.645Z,95.5
2023-02-20T02:51:38.952Z,95.6
2023-02-20T02:52:55.238Z,95.8
2023-02-20T02:54:10.551Z,95.8
2023-02-20T02:55:26.842Z,95.9
2023-02-20T02:56:43.124Z,96
2023-02-20T02:57:59.425Z,96.2
2023-02-20T02:59:15.723Z,96.1
2023-02-20T03:00:32.014Z,96.2
2023-02-20T03:01:48.312Z,96.2
2023-02-20T03:03:04.593Z,96.1
2023-02-20T03:04:20.902Z,96
2023-02-20T03:05:37.191Z,96.1
2023-02-20T03:06:53.473Z,96
2023-02-20T03:08:09.780Z,96
2023-02-20T03:09:26.065Z,95.8
2023-02-20T03:10:41.372Z,95.6
2023-02-20T03:11:57.684Z,95.6
2023-02-20T03:13:13.964Z,95.6
2023-02-20T03:14:30.276Z,95.5
2023-02-20T03:15:46.554Z,95.5
2023-02-20T03:17:02.851Z,95.4
2023-02-20T03:18:19.142Z,95.4
2023-02-20T03:19:35.442Z,95.5
2023-02-20T03:20:51.744Z,95.4
2023-02-20T03:22:08.030Z,95.5
2023-02-20T03:23:24.325Z,95.5
2023-02-20T03:24:40.606Z,95.5
2023-02-20T03:25:56.901Z,95.5
2023-02-20T03:28:28.505Z,95.5
2023-02-20T03:29:44.799Z,95.5
2023-02-20T03:31:01.110Z,95.5
2023-02-20T03:32:17.387Z,95.5
2023-02-20T03:33:33.000Z,95.5
2023-02-20T03:34:49.991Z,95.5
2023-02-20T03:36:06.261Z,95.5
2023-02-20T03:37:22.570Z,95.5
2023-02-20T03:38:38.873Z,95.4
2023-02-20T03:39:55.153Z,95.4
2023-02-20T03:41:11.438Z,95.4
2023-02-20T03:42:27.737Z,95.3
2023-02-20T03:43:44.150Z,95.1
2023-02-20T03:45:00.443Z,95
2023-02-20T03:46:16.755Z,94.8
2023-02-20T03:48:49.333Z,94.7
2023-02-20T03:50:05.617Z,94.5
2023-02-20T03:51:21.916Z,94.3
2023-02-20T03:52:38.207Z,94.3
2023-02-20T03:53:54.516Z,94
2023-02-20T03:55:10.795Z,93.8
2023-02-20T03:56:27.103Z,93.3
2023-02-20T03:57:43.380Z,92.9
2023-02-20T03:58:59.683Z,92.6
2023-02-20T04:00:14.997Z,92.2
2023-02-20T04:01:31.285Z,91.9
2023-02-20T04:02:47.592Z,91.6
2023-02-20T04:04:03.887Z,91.2
2023-02-20T04:05:20.163Z,91.1
2023-02-20T04:06:36.455Z,91.1
2023-02-20T04:07:52.745Z,90.9
2023-02-20T04:09:09.059Z,90.5
2023-02-20T04:10:25.337Z,90.5
2023-02-20T04:11:41.643Z,90.3
2023-02-20T04:12:57.927Z,90.1
2023-02-20T04:14:14.213Z,90.1
2023-02-20T04:15:30.509Z,89.9
2023-02-20T04:16:45.823Z,89.8
2023-02-20T04:18:02.128Z,89.7
2023-02-20T04:19:18.408Z,89.4
2023-02-20T04:20:34.723Z,89.3
2023-02-20T04:21:50.992Z,89.1
2023-02-20T04:23:07.285Z,89
2023-02-20T04:24:23.597Z,88.9
2023-02-20T04:25:39.887Z,88.5
2023-02-20T04:26:56.174Z,88.4
2023-02-20T04:28:12.469Z,88.4
2023-02-20T04:29:28.758Z,88.1
2023-02-20T04:30:45.064Z,88
2023-02-20T04:32:01.355Z,87.7
2023-02-20T04:33:16.657Z,87.8
2023-02-20T04:34:32.943Z,87.5
2023-02-20T04:35:49.000Z,87.6
2023-02-20T04:37:05.538Z,87.6
2023-02-20T04:38:21.830Z,87.8
2023-02-20T04:39:38.130Z,87.8
2023-02-20T04:40:54.426Z,87.9
2023-02-20T04:42:10.730Z,88
2023-02-20T04:43:27.005Z,88.1
2023-02-20T04:44:43.297Z,88.2
2023-02-20T04:45:59.606Z,88.4
2023-02-20T04:47:15.897Z,88.5
2023-02-20T04:48:32.199Z,88.7
2023-02-20T04:49:47.500Z,88.9
2023-02-20T04:51:03.792Z,89.2
2023-02-20T04:52:20.080Z,89.1
2023-02-20T04:53:36.386Z,89.3
2023-02-20T04:54:52.665Z,89.3
2023-02-20T04:56:08.969Z,89.4
2023-02-20T04:57:25.259Z,89.5
2023-02-20T04:58:41.556Z,89.6
2023-02-20T04:59:57.851Z,89.9
2023-02-20T05:01:14.134Z,90.1
2023-02-20T05:02:30.447Z,90.3
2023-02-20T05:03:46.734Z,90.5
2023-02-20T05:05:03.020Z,90.8
2023-02-20T05:06:18.344Z,91
2023-02-20T05:07:34.621Z,91.2
2023-02-20T05:08:50.935Z,91.3
2023-02-20T05:10:07.212Z,91.5
2023-02-20T05:11:23.495Z,91.5
2023-02-20T05:12:39.794Z,91.7
2023-02-20T05:13:56.086Z,91.8
2023-02-20T05:15:12.388Z,91.8
2023-02-20T05:16:28.691Z,91.9
2023-02-20T05:17:44.976Z,91.9
2023-02-20T05:19:01.284Z,91.8
2023-02-20T05:20:17.570Z,92
2023-02-20T05:21:33.868Z,92
2023-02-20T05:22:50.295Z,91.9
2023-02-20T05:24:06.582Z,92
2023-02-20T05:25:22.000Z,91.9
2023-02-20T05:26:39.156Z,91.9
2023-02-20T05:27:55.466Z,91.6
2023-02-20T05:29:11.743Z,91.1
2023-02-20T05:30:28.054Z,90.8
2023-02-20T05:31:44.334Z,90.7
2023-02-20T05:33:00.629Z,90.3
2023-02-20T05:34:16.929Z,90.2
2023-02-20T05:35:33.219Z,90
2023-02-20T05:36:49.519Z,89.9
2023-02-20T05:38:05.793Z,89.7
2023-02-20T05:39:21.118Z,89.3
2023-02-20T05:40:37.400Z,88.9
2023-02-20T05:41:53.710Z,88.4
2023-02-20T05:43:09.992Z,88.4
2023-02-20T05:44:26.293Z,88.3
2023-02-20T05:45:42.577Z,87.6
2023-02-20T05:46:58.826Z,87.5
2023-02-20T05:48:15.119Z,87.3
2023-02-20T05:49:31.366Z,87
2023-02-20T05:50:47.600Z,86.7
2023-02-20T05:52:03.839Z,86.1
2023-02-20T05:53:20.097Z,85.5
2023-02-20T05:54:36.327Z,85.4
2023-02-20T05:55:51.590Z,85.4
2023-02-20T05:57:07.000Z,85.2
2023-02-20T05:58:24.071Z,85.1
2023-02-20T05:59:40.331Z,84.9
2023-02-20T06:00:56.564Z,84.8
2023-02-20T06:02:11.805Z,84.7
2023-02-20T06:03:28.059Z,84.8
2023-02-20T06:04:44.311Z,84.6
2023-02-20T06:06:00.531Z,84.2
2023-02-20T06:07:16.768Z,83.8
2023-02-20T06:08:33.019Z,84
2023-02-20T06:09:49.245Z,83.4
2023-02-20T06:11:05.507Z,83.5
2023-02-20T06:12:21.737Z,83.5
2023-02-20T06:13:37.967Z,83.2
2023-02-20T06:14:54.230Z,82.9
2023-02-20T06:16:10.456Z,83
2023-02-20T06:17:26.693Z,83
2023-02-20T06:18:41.964Z,83.1
2023-02-20T06:19:58.182Z,83
2023-02-20T06:21:14.431Z,83
2023-02-20T06:22:30.682Z,83.1
2023-02-20T06:23:46.926Z,82.9
2023-02-20T06:25:03.161Z,82.9
2023-02-20T06:26:19.387Z,82.5
2023-02-20T06:27:35.643Z,82.7
2023-02-20T06:28:51.875Z,82.7
2023-02-20T06:30:08.108Z,82.5
2023-02-20T06:31:24.365Z,82.4
2023-02-20T06:32:40.600Z,82.7
2023-02-20T06:33:56.821Z,82.5
2023-02-20T06:35:12.103Z,82.3
2023-02-20T06:36:28.334Z,82.3
2023-02-20T06:37:44.577Z,81.8
2023-02-20T06:39:00.799Z,81.5
2023-02-20T06:40:17.038Z,81
2023-02-20T06:41:33.282Z,81
2023-02-20T06:42:49.522Z,81
2023-02-20T06:44:05.758Z,80.5
2023-02-20T06:45:22.010Z,80.3
2023-02-20T06:46:38.239Z,79.9
2023-02-20T06:47:54.491Z,79.9
2023-02-20T06:49:10.731Z,79.6
2023-02-20T06:50:26.971Z,79.7
2023-02-20T06:51:42.224Z,79.5
2023-02-20T06:52:58.467Z,79.1
2023-02-20T06:54:14.709Z,79.3
2023-02-20T06:55:30.938Z,79.2
2023-02-20T06:56:47.189Z,78.9
2023-02-20T06:58:03.433Z,78.6
2023-02-20T06:59:19.653Z,78.7
2023-02-20T07:00:35.917Z,78.4
2023-02-20T07:01:52.144Z,78.2
2023-02-20T07:03:08.384Z,78.5
2023-02-20T07:04:24.635Z,78.3
2023-02-20T07:05:40.872Z,78.1
2023-02-20T07:06:57.093Z,77.9
2023-02-20T07:08:12.357Z,77.8
2023-02-20T07:09:28.586Z,77.8
2023-02-20T07:10:44.855Z,77.8
2023-02-20T07:12:01.084Z,78
2023-02-20T07:13:17.327Z,77.8
2023-02-20T07:14:33.544Z,77.4
2023-02-20T07:15:49.801Z,77.4
2023-02-20T07:17:06.042Z,77.6
2023-02-20T07:18:22.276Z,77.6
2023-02-20T07:19:38.521Z,76.9
2023-02-20T07:20:54.761Z,76.3
2023-02-20T07:22:11.000Z,76.2
2023-02-20T07:23:27.239Z,76.6
2023-02-20T07:24:42.507Z,76.3
2023-02-20T07:25:58.747Z,76.3
2023-02-20T07:27:14.980Z,76.5
2023-02-20T07:28:31.211Z,76.5
2023-02-20T07:29:47.452Z,76.5
2023-02-20T07:31:03.696Z,76.5
2023-02-20T07:32:19.920Z,76.5
2023-02-20T07:33:36.160Z,76.6
2023-02-20T07:34:52.420Z,76.8
2023-02-20T07:36:08.651Z,76.7
2023-02-20T07:37:24.888Z,76.7
2023-02-20T07:38:41.137Z,76.5
2023-02-20T07:39:57.376Z,76.5
2023-02-20T07:41:12.641Z,76.3
2023-02-20T07:42:28.854Z,76.5
2023-02-20T07:43:45.107Z,76.3
2023-02-20T07:45:01.333Z,76
2023-02-20T07:46:17.578Z,76
2023-02-20T07:47:33.819Z,75.7
2023-02-20T07:48:50.077Z,75.5
2023-02-20T07:50:06.296Z,75.5
2023-02-20T07:51:22.542Z,75.4
2023-02-20T07:52:38.768Z,75.4
2023-02-20T07:53:55.026Z,75.2
2023-02-20T07:55:11.251Z,75
2023-02-20T07:56:27.504Z,75.2
2023-02-20T07:57:43.737Z,75.4
2023-02-20T07:58:58.996Z,74.6
2023-02-20T08:00:15.233Z,74.4
2023-02-20T08:01:31.491Z,74.2
2023-02-20T08:02:47.702Z,74.2
2023-02-20T08:04:03.965Z,74
2023-02-20T08:05:20.196Z,74
2023-02-20T08:06:36.434Z,73.8
2023-02-20T08:07:52.675Z,73
2023-02-20T08:09:08.900Z,73
2023-02-20T08:10:25.154Z,73.2
2023-02-20T08:11:41.377Z,73
2023-02-20T08:12:57.623Z,73.3
2023-02-20T08:14:13.875Z,72.9
2023-02-20T08:15:29.124Z,72.8
2023-02-20T08:16:45.380Z,72.5
2023-02-20T08:18:01.608Z,72.5
2023-02-20T08:19:17.843Z,72.2
2023-02-20T08:20:34.084Z,72.2
2023-02-20T08:21:50.333Z,72.3
2023-02-20T08:23:06.580Z,72.3
2023-02-20T08:24:22.804Z,72.3
2023-02-20T08:25:39.040Z,72.5
2023-02-20T08:26:55.279Z,72.1
2023-02-20T08:28:11.522Z,72.2
2023-02-20T08:29:27.759Z,72.1
2023-02-20T08:30:43.990Z,72.3
2023-02-20T08:31:59.257Z,72
2023-02-20T08:33:15.482Z,71.6
2023-02-20T08:34:31.735Z,71.5
2023-02-20T08:35:47.987Z,71.5
2023-02-20T08:37:04.216Z,71.6
2023-02-20T08:38:20.446Z,71.5
2023-02-20T08:39:36.679Z,71.7
2023-02-20T08:40:52.948Z,71.4
2023-02-20T08:42:09.182Z,71.8
2023-02-20T08:43:25.409Z,71.5
2023-02-20T08:44:41.654Z,71.5
2023-02-20T08:45:57.895Z,71.3
2023-02-20T08:47:14.126Z,71.3
2023-02-20T08:48:29.383Z,71.1
2023-02-20T08:49:45.623Z,71.3
2023-02-20T08:51:01.877Z,71.1
2023-02-20T08:52:18.114Z,71.2
2023-02-20T08:53:34.350Z,71.4
2023-02-20T08:54:50.586Z,71.3
2023-02-20T08:56:06.829Z,71.2
2023-02-20T08:57:23.076Z,71.3
2023-02-20T08:58:39.302Z,71.3
2023-02-20T08:59:55.535Z,71.4
2023-02-20T09:01:11.789Z,70.9
2023-02-20T09:02:28.008Z,71
2023-02-20T09:03:44.271Z,71
2023-02-20T09:04:59.517Z,71
2023-02-20T09:06:15.755Z,70.8
2023-02-20T09:07:31.998Z,70.5
2023-02-20T09:08:48.235Z,70.7
2023-02-20T09:10:04.465Z,70.7
2023-02-20T09:11:20.706Z,70.3
2023-02-20T09:12:36.958Z,70.2
2023-02-20T09:13:53.204Z,70.2
2023-02-20T09:15:09.435Z,70
2023-02-20T09:16:25.673Z,70
2023-02-20T09:17:41.917Z,70.2
2023-02-20T09:18:58.162Z,70.3
2023-02-20T09:20:14.388Z,70
2023-02-20T09:21:29.649Z,70.1
2023-02-20T09:22:45.897Z,70.4
2023-02-20T09:24:02.111Z,70.3
2023-02-20T09:25:18.374Z,70.1
2023-02-20T09:26:34.590Z,69.9
2023-02-20T09:27:50.860Z,70.2
2023-02-20T09:29:07.093Z,70.3
2023-02-20T09:30:23.313Z,70.4
2023-02-20T09:31:39.576Z,69.9
2023-02-20T09:32:55.805Z,69.8
2023-02-20T09:34:12.037Z,70.1
2023-02-20T09:35:28.275Z,69.5
2023-02-20T09:36:44.517Z,69.7
2023-02-20T09:37:59.766Z,69.3
2023-02-20T09:39:16.031Z,69.4
2023-02-20T09:40:32.255Z,69.7
2023-02-20T09:41:48.492Z,69.4
2023-02-20T09:43:04.748Z,69.3
2023-02-20T09:44:20.983Z,69
2023-02-20T09:45:37.200Z,68.8
2023-02-20T09:46:53.451Z,68.9
2023-02-20T09:48:09.690Z,68.9
2023-02-20T09:49:25.932Z,68.6
2023-02-20T09:50:42.179Z,68.5
2023-02-20T09:51:58.418Z,68.2
2023-02-20T09:53:14.654Z,68.3
2023-02-20T09:54:29.906Z,67.8
2023-02-20T09:55:46.150Z,68
2023-02-20T09:57:02.387Z,67.8
2023-02-20T09:58:18.644Z,68
2023-02-20T09:59:34.876Z,68
2023-02-20T10:00:51.111Z,67.8
2023-02-20T10:02:07.349Z,67.2
2023-02-20T10:03:23.592Z,67.2
2023-02-20T10:04:39.823Z,67.2
2023-02-20T10:05:56.074Z,67.2
2023-02-20T10:07:12.311Z,67
2023-02-20T10:08:28.545Z,66.7
2023-02-20T10:09:44.772Z,66.3
2023-02-20T10:11:00.058Z,65.8
2023-02-20T10:12:16.278Z,66.5
2023-02-20T10:13:32.532Z,66.5
2023-02-20T10:14:48.752Z,66.4
2023-02-20T10:16:04.984Z,65.9
2023-02-20T10:17:20.260Z,65.8
2023-02-20T10:18:36.502Z,65.4
2023-02-20T10:19:52.742Z,64.9
2023-02-20T10:21:08.995Z,65.3
2023-02-20T10:22:25.216Z,64.9
2023-02-20T10:23:41.464Z,64.5
2023-02-20T10:24:57.691Z,64.8
2023-02-20T10:26:13.940Z,64.5
2023-02-20T10:27:30.191Z,64.5
2023-02-20T10:28:46.417Z,65
2023-02-20T10:30:02.654Z,64.8
2023-02-20T10:31:18.897Z,64.5
2023-02-20T10:32:35.131Z,64.2
2023-02-20T10:33:51.498Z,63.9
2023-02-20T10:35:07.739Z,63.4
2023-02-20T10:36:23.980Z,63.2
2023-02-20T10:37:40.199Z,63
2023-02-20T10:38:56.459Z,63.2
2023-02-20T10:40:12.697Z,63.5
2023-02-20T10:41:28.934Z,62.9
2023-02-20T10:42:45.186Z,63
2023-02-20T10:44:01.429Z,62.9
2023-02-20T10:45:17.654Z,62.7
2023-02-20T10:46:33.887Z,62.1
2023-02-20T10:47:50.133Z,62.5
2023-02-20T10:49:06.373Z,62.7
2023-02-20T10:50:21.623Z,63
2023-02-20T10:51:37.868Z,62.9
2023-02-20T10:52:54.091Z,62.6
2023-02-20T10:54:10.346Z,62.5
2023-02-20T10:55:26.591Z,63.1
2023-02-20T10:56:42.834Z,62.6
2023-02-20T10:57:59.062Z,62
2023-02-20T10:59:15.293Z,61.8
2023-02-20T11:00:31.539Z,61.6
2023-02-20T11:01:47.779Z,61.4
2023-02-20T11:03:04.010Z,61.2
2023-02-20T11:04:20.244Z,61.3
2023-02-20T11:05:36.504Z,61
2023-02-20T11:06:52.875Z,60.6
2023-02-20T11:08:09.103Z,60.4
2023-02-20T11:09:25.356Z,60.4
2023-02-20T11:10:41.590Z,60.4
2023-02-20T11:11:57.820Z,60.2
2023-02-20T11:13:14.042Z,60
2023-02-20T11:14:30.305Z,59.1
2023-02-20T11:15:46.523Z,59.2
2023-02-20T11:17:02.786Z,59.9
2023-02-20T11:18:19.022Z,58.8
2023-02-20T11:19:35.266Z,59
2023-02-20T11:20:51.492Z,58.1
2023-02-20T11:22:07.719Z,58.6
2023-02-20T11:23:23.003Z,58.5
2023-02-20T11:24:39.231Z,58.4
2023-02-20T11:25:55.465Z,58.6
2023-02-20T11:27:11.715Z,58.9
2023-02-20T11:28:27.959Z,58.2
2023-02-20T11:29:44.197Z,58.2
2023-02-20T11:31:00.427Z,58.3
2023-02-20T11:32:16.664Z,58.2
2023-02-20T11:33:32.909Z,58.3
2023-02-20T11:34:49.140Z,57.3
2023-02-20T11:36:05.382Z,57.3
2023-02-20T11:37:21.636Z,57.1
2023-02-20T11:38:37.848Z,57.8
2023-02-20T11:39:53.130Z,58.1
2023-02-20T11:41:09.352Z,58.3
2023-02-20T11:42:25.594Z,58
2023-02-20T11:43:41.833Z,58
2023-02-20T11:44:58.062Z,57.6
2023-02-20T11:46:14.312Z,57.7
2023-02-20T11:47:30.555Z,57.5
2023-02-20T11:48:46.782Z,57.9
2023-02-20T11:50:03.013Z,57.8
2023-02-20T11:51:19.278Z,57.7
2023-02-20T11:52:35.506Z,56.8
2023-02-20T11:53:51.758Z,57
2023-02-20T11:55:07.990Z,57.5
2023-02-20T11:56:23.239Z,57.3
2023-02-20T11:57:39.472Z,57.4
2023-02-20T11:58:55.717Z,57.4
2023-02-20T12:00:11.952Z,57.7
2023-02-20T12:01:28.210Z,56.9
2023-02-20T12:02:44.459Z,57.3
2023-02-20T12:04:00.680Z,57.3
2023-02-20T12:05:16.920Z,57.4
2023-02-20T12:06:33.156Z,57.6
2023-02-20T12:07:49.386Z,57.9
2023-02-20T12:09:05.636Z,57.6
2023-02-20T12:10:21.866Z,57.8
2023-02-20T12:11:38.119Z,58
2023-02-20T12:12:53.359Z,57.7
2023-02-20T12:14:09.618Z,57.4
2023-02-20T12:15:25.859Z,57.2
2023-02-20T12:16:42.098Z,57.3
2023-02-20T12:17:58.327Z,57.6
2023-02-20T12:19:14.556Z,57.6
2023-02-20T12:20:30.813Z,57.2
2023-02-20T12:21:47.033Z,57.8
2023-02-20T12:23:03.302Z,58.1
2023-02-20T12:24:19.527Z,57.9
2023-02-20T12:25:35.772Z,57.8
2023-02-20T12:26:52.001Z,57.9
2023-02-20T12:28:08.243Z,57.9
2023-02-20T12:29:24.594Z,58.3
2023-02-20T12:30:40.843Z,58.3
2023-02-20T12:31:57.097Z,58.5
2023-02-20T12:33:13.324Z,58.8
2023-02-20T12:34:29.579Z,58.5
2023-02-20T12:35:45.801Z,58.4
2023-02-20T12:37:02.056Z,58.5
2023-02-20T12:38:18.267Z,58.7
2023-02-20T12:39:34.531Z,58.7
2023-02-20T12:40:50.759Z,59.1
2023-02-20T12:42:06.982Z,58.8
2023-02-20T12:43:23.250Z,59.1
2023-02-20T12:44:39.488Z,59
2023-02-20T12:45:54.720Z,58.8
2023-02-20T12:47:10.973Z,59.1
2023-02-20T12:48:27.214Z,59.3
2023-02-20T12:49:43.464Z,59.6
2023-02-20T12:50:59.687Z,59.6
2023-02-20T12:52:15.934Z,59.7
2023-02-20T12:53:32.177Z,59.8
2023-02-20T12:54:48.417Z,59.5
2023-02-20T12:56:04.644Z,59.6
2023-02-20T12:57:20.885Z,59.8
2023-02-20T12:58:37.123Z,59.9
2023-02-20T12:59:53.362Z,60.1
2023-02-20T13:01:09.602Z,60
2023-02-20T13:02:24.870Z,60.1
2023-02-20T13:03:41.101Z,60.2
2023-02-20T13:04:57.335Z,60.4
2023-02-20T13:06:13.564Z,60.4
2023-02-20T13:07:29.816Z,60.7
2023-02-20T13:08:46.061Z,60.5
2023-02-20T13:10:02.302Z,60.5
2023-02-20T13:11:18.541Z,60.9
2023-02-20T13:12:34.778Z,60.8
2023-02-20T13:13:51.018Z,60.8
2023-02-20T13:15:07.233Z,60.8
2023-02-20T13:16:23.495Z,60.9
2023-02-20T13:17:39.741Z,61.2
2023-02-20T13:18:54.984Z,61.1
2023-02-20T13:20:11.226Z,61.3
2023-02-20T13:21:27.473Z,61.3
2023-02-20T13:22:43.721Z,61.6
2023-02-20T13:23:59.940Z,61.4
2023-02-20T13:25:16.170Z,61.2
2023-02-20T13:26:32.416Z,61.5
2023-02-20T13:27:48.678Z,61.7
2023-02-20T13:29:04.909Z,61.9
2023-02-20T13:30:21.127Z,61.6
2023-02-20T13:31:37.396Z,61.6
2023-02-20T13:32:53.615Z,61.7
2023-02-20T13:34:09.872Z,62.2
2023-02-20T13:35:25.120Z,62.2
2023-02-20T13:36:41.366Z,62.3
2023-02-20T13:37:57.601Z,62.6
2023-02-20T13:39:13.853Z,62.2
2023-02-20T13:40:30.090Z,62.4
2023-02-20T13:41:46.325Z,62.1
2023-02-20T13:43:02.562Z,62.2
2023-02-20T13:44:18.792Z,62.3
2023-02-20T13:45:35.030Z,62.4
2023-02-20T13:46:51.273Z,62.6
2023-02-20T13:48:07.526Z,62.7
2023-02-20T13:49:23.764Z,62.6
2023-02-20T13:50:40.004Z,62.5
2023-02-20T13:51:55.249Z,62.1
2023-02-20T13:53:11.489Z,62.4
2023-02-20T13:54:27.711Z,62.5
2023-02-20T13:55:43.957Z,62.2
2023-02-20T13:57:00.216Z,62.3
2023-02-20T13:58:16.436Z,62.8
2023-02-20T13:59:32.687Z,62.5
2023-02-20T14:00:48.926Z,62.8
2023-02-20T14:02:05.176Z,63
2023-02-20T14:03:21.407Z,63
2023-02-20T14:04:37.654Z,63
2023-02-20T14:05:53.895Z,62.9
2023-02-20T14:07:10.144Z,62.6
2023-02-20T14:08:25.381Z,62.6
2023-02-20T14:09:41.621Z,62.6
2023-02-20T14:10:57.848Z,63
2023-02-20T14:12:14.101Z,62.8
2023-02-20T14:13:30.347Z,62.7
2023-02-20T14:14:46.571Z,62.8
2023-02-20T14:16:02.818Z,62.9
2023-02-20T14:17:19.048Z,62.9
2023-02-20T14:18:35.304Z,63.1
2023-02-20T14:19:51.543Z,63.5
2023-02-20T14:21:07.794Z,63.6
2023-02-20T14:22:24.025Z,63.6
2023-02-20T14:23:40.266Z,64
2023-02-20T14:24:55.527Z,63.8
2023-02-20T14:26:11.737Z,63.9
2023-02-20T14:27:28.008Z,64.3
2023-02-20T14:28:44.239Z,64.3
2023-02-20T14:30:00.474Z,64.3
2023-02-20T14:31:16.713Z,64.5
2023-02-20T14:32:31.978Z,64.9
2023-02-20T14:33:48.216Z,64.9
2023-02-20T14:35:04.456Z,65
2023-02-20T14:36:20.689Z,65.2
2023-02-20T14:37:36.944Z,65.3
2023-02-20T14:38:53.177Z,65.4
2023-02-20T14:40:09.426Z,65.1
2023-02-20T14:41:25.653Z,65.5
2023-02-20T14:42:41.883Z,65.6
2023-02-20T14:43:58.140Z,66
2023-02-20T14:45:14.372Z,65.8
2023-02-20T14:46:30.599Z,65.8
2023-02-20T14:47:46.839Z,65.8
2023-02-20T14:49:02.104Z,66
2023-02-20T14:50:18.359Z,66.3
2023-02-20T14:51:34.570Z,66.2
2023-02-20T14:52:50.839Z,66.4
2023-02-20T14:54:07.044Z,66.7
2023-02-20T14:55:23.302Z,67
2023-02-20T14:56:39.554Z,66.8
2023-02-20T14:57:55.778Z,67.1
2023-02-20T14:59:12.035Z,67
2023-02-20T15:00:28.276Z,67.1
2023-02-20T15:01:44.489Z,67.2
2023-02-20T15:03:00.746Z,67.4
2023-02-20T15:04:16.975Z,67.3
2023-02-20T15:05:32.236Z,67.5
2023-02-20T15:06:48.458Z,67.7
2023-02-20T15:08:04.710Z,67.8
2023-02-20T15:09:20.952Z,67.8
2023-02-20T15:10:37.178Z,68
2023-02-20T15:11:53.412Z,68.1
2023-02-20T15:13:09.679Z,68.5
2023-02-20T15:14:25.890Z,68.4
2023-02-20T15:15:42.149Z,68.7
2023-02-20T15:16:58.394Z,68.4
2023-02-20T15:18:14.627Z,68.5
2023-02-20T15:19:30.845Z,68.4
2023-02-20T15:20:47.091Z,68.4
2023-02-20T15:22:02.361Z,68.6
2023-02-20T15:23:18.596Z,68.7
2023-02-20T15:24:34.836Z,68.8
2023-02-20T15:25:51.075Z,68.9
2023-02-20T15:27:07.299Z,68.9
2023-02-20T15:28:23.564Z,69
2023-02-20T15:29:39.796Z,69.1
2023-02-20T15:30:56.048Z,69.2
2023-02-20T15:32:12.256Z,69.2
2023-02-20T15:33:28.514Z,69.4
2023-02-20T15:34:44.734Z,69.5
2023-02-20T15:36:00.993Z,69.7
2023-02-20T15:37:17.210Z,69.9
2023-02-20T15:38:32.500Z,70.1
2023-02-20T15:39:48.723Z,70.1
2023-02-20T15:41:04.976Z,70.1
2023-02-20T15:42:21.206Z,70.3
2023-02-20T15:43:37.444Z,70.3
2023-02-20T15:44:53.685Z,70.5
2023-02-20T15:46:09.901Z,70.6
2023-02-20T15:47:26.151Z,70.6
2023-02-20T15:48:42.397Z,70.6
2023-02-20T15:49:58.639Z,70.7
2023-02-20T15:51:14.882Z,70.6
2023-02-20T15:52:31.124Z,70.8
2023-02-20T15:53:47.369Z,70.8
2023-02-20T15:55:02.629Z,70.8
2023-02-20T15:56:18.869Z,70.8
2023-02-20T15:57:35.108Z,70.9
2023-02-20T15:58:51.334Z,70.9
2023-02-20T16:00:07.564Z,70.9
2023-02-20T16:01:23.810Z,70.8
2023-02-20T16:02:40.032Z,70.7
2023-02-20T16:03:56.276Z,70.7
2023-02-20T16:05:12.520Z,70.8
2023-02-20T16:06:28.784Z,70.4
2023-02-20T16:07:44.991Z,70.6
2023-02-20T16:09:01.257Z,70.7
2023-02-20T16:10:17.485Z,70.7
2023-02-20T16:11:32.741Z,70.6
2023-02-20T16:12:48.982Z,70.4
2023-02-20T16:14:05.213Z,70.3
2023-02-20T16:15:21.448Z,70.3
2023-02-20T16:16:37.698Z,70.3
2023-02-20T16:17:53.928Z,70.4
2023-02-20T16:19:10.170Z,70.5
2023-02-20T16:20:26.403Z,70.6
2023-02-20T16:21:42.653Z,70.5
2023-02-20T16:22:58.885Z,70.6
2023-02-20T16:24:15.133Z,70.5
2023-02-20T16:25:31.384Z,70.7
2023-02-20T16:26:47.613Z,70.7
2023-02-20T16:28:02.881Z,70.9
2023-02-20T16:29:19.120Z,71
2023-02-20T16:30:35.345Z,70.9
2023-02-20T16:31:51.589Z,70.9
2023-02-20T16:33:07.829Z,71
2023-02-20T16:34:24.085Z,71.2
2023-02-20T16:35:40.310Z,71
2023-02-20T16:36:56.557Z,70.9
2023-02-20T16:38:12.767Z,70.9
2023-02-20T16:39:29.006Z,70.8
2023-02-20T16:40:45.261Z,71
2023-02-20T16:42:01.512Z,70.9
2023-02-20T16:43:17.739Z,71
2023-02-20T16:44:32.984Z,71.3
2023-02-20T16:45:49.245Z,72.5
2023-02-20T16:47:05.459Z,74.1
2023-02-20T16:48:21.712Z,75.2
2023-02-20T16:49:37.959Z,76.7
2023-02-20T16:50:54.177Z,77.9
2023-02-20T16:52:10.439Z,78.6
2023-02-20T16:53:26.677Z,79.2
2023-02-20T16:54:42.916Z,79.9
2023-02-20T16:55:59.144Z,80.5
2023-02-20T16:57:15.450Z,81.1
2023-02-20T16:58:31.738Z,81.4
2023-02-20T16:59:48.013Z,81.7
2023-02-20T17:01:03.335Z,81.9
2023-02-20T17:02:19.605Z,82.3
2023-02-20T17:03:35.834Z,82.5